createdAt,value
2023-03-15T00:01:26.447Z,50.90
2023-03-15T00:03:56.668Z,50.59
2023-03-15T00:06:24.478Z,50.72
2023-03-15T00:08:52.157Z,50.70
2023-03-15T00:11:19.737Z,50.63
2023-03-15T00:13:47.259Z,50.85
2023-03-15T00:16:17.626Z,50.75
2023-03-15T00:18:47.265Z,50.61
2023-03-15T00:21:15.273Z,50.86
2023-03-15T00:23:42.687Z,50.58
2023-03-15T00:26:09.835Z,50.77
2023-03-15T00:28:36.986Z,50.50
2023-03-15T00:31:09.442Z,50.86
2023-03-15T00:33:36.646Z,50.58
2023-03-15T00:36:06.673Z,50.68
2023-03-15T00:38:39.206Z,50.45
2023-03-15T00:41:16.100Z,50.17
2023-03-15T00:43:44.776Z,50.21
2023-03-15T00:46:13.203Z,50.73
2023-03-15T00:48:40.633Z,50.70
2023-03-15T00:51:16.413Z,50.59
2023-03-15T00:53:46.403Z,50.68
2023-03-15T00:56:23.437Z,50.81
2023-03-15T00:58:54.810Z,50.87
2023-03-15T01:01:27.181Z,51.08
2023-03-15T01:03:54.756Z,50.99
2023-03-15T01:06:25.635Z,50.75
2023-03-15T01:08:55.814Z,50.78
2023-03-15T01:11:26.714Z,51.15
2023-03-15T01:13:56.648Z,51.03
2023-03-15T01:16:24.516Z,51.08
2023-03-15T01:18:52.619Z,51.06
2023-03-15T01:21:21.949Z,51.17
2023-03-15T01:23:49.394Z,51.13
2023-03-15T01:26:17.840Z,51.41
2023-03-15T01:28:45.533Z,51.51
2023-03-15T01:31:32.983Z,51.14
2023-03-15T01:34:01.108Z,51.24
2023-03-15T01:36:32.125Z,50.90
2023-03-15T01:38:59.200Z,51.14
2023-03-15T01:41:32.391Z,50.88
2023-03-15T01:43:59.507Z,50.99
2023-03-15T01:46:30.193Z,50.92
2023-03-15T01:49:27.532Z,51.02
2023-03-15T01:52:07.322Z,51.49
2023-03-15T01:55:29.790Z,51.40
2023-03-15T01:58:08.328Z,51.63
2023-03-15T02:00:39.721Z,52.09
2023-03-15T02:03:21.781Z,52.14
2023-03-15T02:05:58.660Z,52.63
2023-03-15T02:08:50.977Z,52.76
2023-03-15T02:11:21.958Z,52.96
2023-03-15T02:13:50.386Z,52.96
2023-03-15T02:16:18.902Z,53.16
2023-03-15T02:18:52.895Z,53.41
2023-03-15T02:21:48.299Z,53.22
2023-03-15T02:24:44.484Z,53.29
2023-03-15T02:27:12.207Z,53.23
2023-03-15T02:29:39.335Z,53.32
2023-03-15T02:32:07.127Z,53.38
2023-03-15T02:34:34.215Z,53.41
2023-03-15T02:37:03.093Z,53.16
2023-03-15T02:39:30.512Z,53.19
2023-03-15T02:41:59.100Z,53.24
2023-03-15T02:44:37.781Z,53.27
2023-03-15T02:47:10.605Z,53.85
2023-03-15T02:52:30.435Z,54.14
2023-03-15T02:54:57.504Z,54.10
2023-03-15T02:57:24.667Z,54.15
2023-03-15T02:59:55.164Z,53.91
2023-03-15T03:02:22.523Z,53.91
2023-03-15T03:04:49.788Z,53.74
2023-03-15T03:07:19.778Z,53.60
2023-03-15T03:09:50.748Z,53.56
2023-03-15T03:12:19.495Z,53.57
2023-03-15T03:14:47.430Z,53.53
2023-03-15T03:17:18.076Z,53.29
2023-03-15T03:19:46.109Z,53.33
2023-03-15T03:22:14.772Z,53.30
2023-03-15T03:24:45.907Z,53.52
2023-03-15T03:27:15.501Z,53.82
2023-03-15T03:29:45.098Z,54.00
2023-03-15T03:32:12.678Z,54.12
2023-03-15T03:34:39.908Z,54.38
2023-03-15T03:37:07.925Z,54.60
2023-03-15T03:40:01.506Z,54.52
2023-03-15T03:42:29.320Z,54.79
2023-03-15T03:44:56.408Z,54.88
2023-03-15T03:47:26.945Z,54.75
2023-03-15T03:49:54.007Z,54.77
2023-03-15T03:52:22.049Z,54.82
2023-03-15T03:54:51.344Z,54.45
2023-03-15T03:57:18.431Z,54.60
2023-03-15T03:59:45.619Z,54.21
2023-03-15T04:02:13.028Z,53.97
2023-03-15T04:04:50.251Z,54.02
2023-03-15T04:07:19.424Z,53.94
2023-03-15T04:09:47.193Z,54.01
2023-03-15T04:12:14.558Z,54.15
2023-03-15T04:14:44.854Z,54.17
2023-03-15T04:17:12.926Z,54.03
2023-03-15T04:19:41.470Z,53.59
2023-03-15T04:22:10.321Z,53.08
2023-03-15T04:24:54.472Z,52.71
2023-03-15T04:27:41.817Z,52.33
2023-03-15T04:30:44.539Z,52.29
2023-03-15T04:33:32.118Z,52.31
2023-03-15T04:36:28.615Z,51.98
2023-03-15T04:39:14.089Z,52.02
2023-03-15T04:41:51.396Z,52.22
2023-03-15T04:44:27.658Z,52.21
2023-03-15T04:47:09.857Z,52.00
2023-03-15T04:49:51.869Z,52.27
2023-03-15T04:52:48.767Z,52.40
2023-03-15T04:55:36.145Z,52.60
2023-03-15T04:58:25.877Z,52.33
2023-03-15T05:01:09.173Z,52.51
2023-03-15T05:04:08.790Z,52.45
2023-03-15T05:06:54.887Z,52.56
2023-03-15T05:09:51.562Z,52.68
2023-03-15T05:12:36.189Z,52.67
2023-03-15T05:15:27.185Z,52.91
2023-03-15T05:18:16.934Z,52.80
2023-03-15T05:20:58.642Z,53.01
2023-03-15T05:23:46.835Z,53.04
2023-03-15T05:26:37.020Z,53.00
2023-03-15T05:29:10.186Z,53.00
2023-03-15T05:32:00.018Z,53.11
2023-03-15T05:34:58.309Z,53.20
2023-03-15T05:37:43.116Z,53.03
2023-03-15T05:40:30.271Z,53.23
2023-03-15T05:43:23.664Z,53.07
2023-03-15T05:46:14.389Z,52.92
2023-03-15T05:48:58.722Z,52.89
2023-03-15T05:51:40.777Z,52.60
2023-03-15T05:54:26.701Z,52.76
2023-03-15T05:57:14.106Z,52.83
2023-03-15T06:00:13.062Z,52.18
2023-03-15T06:02:44.457Z,52.18
2023-03-15T06:05:30.296Z,52.29
2023-03-15T06:08:02.029Z,51.99
2023-03-15T06:10:29.400Z,51.96
2023-03-15T06:13:00.136Z,51.87
2023-03-15T06:15:28.092Z,51.39
2023-03-15T06:17:56.360Z,51.19
2023-03-15T06:20:23.495Z,51.19
2023-03-15T06:22:50.814Z,51.36
2023-03-15T06:25:43.929Z,51.19
2023-03-15T06:28:11.600Z,50.93
2023-03-15T06:30:43.713Z,50.78
2023-03-15T06:33:12.144Z,50.43
2023-03-15T06:35:39.472Z,50.19
2023-03-15T06:38:07.023Z,49.98
2023-03-15T06:40:34.279Z,49.83
2023-03-15T06:43:06.059Z,49.81
2023-03-15T06:45:34.906Z,49.50
2023-03-15T06:48:02.682Z,49.12
2023-03-15T06:50:44.182Z,49.32
2023-03-15T06:53:13.600Z,48.95
2023-03-15T06:55:40.682Z,48.69
2023-03-15T06:58:07.774Z,48.46
2023-03-15T07:00:35.340Z,48.33
2023-03-15T07:03:02.725Z,48.07
2023-03-15T07:05:30.322Z,47.53
2023-03-15T07:07:58.057Z,47.43
2023-03-15T07:10:25.630Z,47.24
2023-03-15T07:12:52.882Z,46.45
2023-03-15T07:15:19.915Z,46.29
2023-03-15T07:17:46.975Z,46.44
2023-03-15T07:20:14.310Z,46.10
2023-03-15T07:22:41.442Z,45.41
2023-03-15T07:25:09.621Z,44.71
2023-03-15T07:27:36.829Z,44.98
2023-03-15T07:30:05.146Z,44.97
2023-03-15T07:32:32.990Z,45.13
2023-03-15T07:35:00.826Z,44.44
2023-03-15T07:37:30.949Z,44.64
2023-03-15T07:40:00.617Z,44.46
2023-03-15T07:42:27.838Z,45.18
2023-03-15T07:45:00.127Z,44.49
2023-03-15T07:47:27.351Z,44.35
2023-03-15T07:49:54.591Z,44.54
2023-03-15T07:52:21.791Z,43.50
2023-03-15T07:54:49.156Z,43.52
2023-03-15T07:57:16.695Z,43.23
2023-03-15T07:59:43.901Z,42.99
2023-03-15T08:02:15.472Z,42.52
2023-03-15T08:04:43.251Z,42.43
2023-03-15T08:07:11.137Z,42.45
2023-03-15T08:09:39.827Z,42.29
2023-03-15T08:12:07.607Z,41.50
2023-03-15T08:14:35.477Z,41.36
2023-03-15T08:17:02.701Z,40.89
2023-03-15T08:19:29.818Z,40.24
2023-03-15T08:21:57.092Z,41.01
2023-03-15T08:24:24.375Z,40.19
2023-03-15T08:26:51.590Z,40.06
2023-03-15T08:29:18.981Z,40.71
2023-03-15T08:31:46.453Z,39.76
2023-03-15T08:34:13.836Z,39.38
2023-03-15T08:36:42.026Z,40.39
2023-03-15T08:39:09.565Z,40.63
2023-03-15T08:41:36.812Z,41.04
2023-03-15T08:44:05.113Z,41.51
2023-03-15T08:46:33.500Z,44.73
2023-03-15T08:49:00.683Z,47.59
2023-03-15T08:51:29.373Z,48.98
2023-03-15T08:53:56.769Z,49.35
2023-03-15T08:56:24.068Z,51.10
2023-03-15T08:58:51.725Z,51.87
2023-03-15T09:01:18.981Z,52.57
2023-03-15T09:03:46.117Z,53.63
2023-03-15T09:06:13.680Z,53.26
2023-03-15T09:08:41.951Z,54.23
2023-03-15T09:11:09.483Z,54.48
2023-03-15T09:13:36.754Z,53.31
2023-03-15T09:16:04.085Z,53.27
2023-03-15T09:18:31.787Z,53.43
2023-03-15T09:20:58.906Z,52.14
2023-03-15T09:23:26.061Z,52.39
2023-03-15T09:25:53.152Z,51.76
2023-03-15T09:28:20.278Z,50.09
2023-03-15T09:30:47.337Z,49.06
2023-03-15T09:33:14.913Z,48.21
2023-03-15T09:35:42.593Z,47.99
2023-03-15T09:38:10.479Z,48.51
2023-03-15T09:40:42.469Z,47.01
2023-03-15T09:43:10.360Z,46.93
2023-03-15T09:46:15.722Z,46.40
2023-03-15T09:49:10.101Z,46.01
2023-03-15T09:51:43.905Z,46.70
2023-03-15T09:54:40.196Z,46.68
2023-03-15T09:57:22.883Z,47.10
2023-03-15T09:59:54.383Z,46.76
2023-03-15T10:02:29.422Z,45.37
2023-03-15T10:05:13.070Z,45.20
2023-03-15T10:07:40.257Z,45.49
2023-03-15T10:10:31.032Z,46.00
2023-03-15T10:13:30.573Z,46.39
2023-03-15T10:16:17.840Z,47.41
2023-03-15T10:19:35.786Z,48.01
2023-03-15T10:22:24.209Z,48.00
2023-03-15T10:25:29.417Z,48.30
2023-03-15T10:28:09.913Z,48.03
2023-03-15T10:30:40.522Z,48.25
2023-03-15T10:33:33.012Z,47.97
2023-03-15T10:36:10.967Z,49.43
2023-03-15T10:38:39.345Z,49.72
2023-03-15T10:41:07.269Z,49.67
2023-03-15T10:43:37.410Z,48.22
2023-03-15T10:46:21.382Z,47.50
2023-03-15T10:49:21.034Z,46.36
2023-03-15T10:51:49.088Z,44.78
2023-03-15T10:54:19.106Z,44.29
2023-03-15T10:56:57.300Z,45.18
2023-03-15T10:59:27.494Z,45.36
2023-03-15T11:02:23.902Z,44.13
2023-03-15T11:05:09.318Z,43.72
2023-03-15T11:07:36.805Z,43.61
2023-03-15T11:10:07.137Z,44.17
2023-03-15T11:12:35.259Z,44.07
2023-03-15T11:15:06.347Z,43.50
2023-03-15T11:17:37.460Z,42.32
2023-03-15T11:20:37.611Z,43.38
2023-03-15T11:23:26.810Z,42.76
2023-03-15T11:25:55.260Z,43.52
2023-03-15T11:28:31.414Z,44.52
2023-03-15T11:31:00.927Z,45.22
2023-03-15T11:33:59.004Z,44.91
2023-03-15T11:36:31.464Z,44.66
2023-03-15T11:39:04.031Z,44.44
2023-03-15T11:41:43.576Z,43.74
2023-03-15T11:44:41.460Z,44.31
2023-03-15T11:47:41.805Z,44.13
2023-03-15T11:50:15.077Z,43.46
2023-03-15T11:52:43.093Z,43.25
2023-03-15T11:55:25.139Z,43.17
2023-03-15T11:57:53.404Z,43.50
2023-03-15T12:00:35.401Z,42.16
2023-03-15T12:03:35.409Z,40.73
2023-03-15T12:06:17.532Z,41.31
2023-03-15T12:08:53.910Z,41.16
2023-03-15T12:11:21.197Z,40.79
2023-03-15T12:14:00.594Z,41.68
2023-03-15T12:16:31.077Z,42.21
2023-03-15T12:19:01.335Z,40.80
2023-03-15T12:21:44.994Z,41.96
2023-03-15T12:24:24.389Z,42.54
2023-03-15T12:27:04.947Z,43.21
2023-03-15T12:29:34.335Z,42.03
2023-03-15T12:32:06.325Z,40.55
2023-03-15T12:34:54.544Z,41.49
2023-03-15T12:37:45.793Z,40.06
2023-03-15T12:40:16.027Z,40.68
2023-03-15T12:42:43.383Z,42.14
2023-03-15T12:45:17.195Z,42.38
2023-03-15T12:47:47.581Z,42.26
2023-03-15T12:50:53.128Z,42.65
2023-03-15T12:53:31.948Z,41.83
2023-03-15T12:56:28.011Z,40.63
2023-03-15T12:59:23.448Z,41.16
2023-03-15T13:01:51.797Z,40.50
2023-03-15T13:04:21.214Z,40.19
2023-03-15T13:07:02.680Z,39.59
2023-03-15T13:09:58.780Z,38.04
2023-03-15T13:12:37.193Z,36.08
2023-03-15T13:15:22.860Z,34.66
2023-03-15T13:17:59.173Z,34.91
2023-03-15T13:20:26.186Z,34.29
2023-03-15T13:23:18.978Z,36.34
2023-03-15T13:26:28.106Z,32.43
2023-03-15T13:28:58.435Z,30.72
2023-03-15T13:31:31.143Z,27.89
2023-03-15T13:34:19.668Z,26.55
2023-03-15T13:36:58.821Z,27.69
2023-03-15T13:39:31.728Z,29.77
2023-03-15T13:42:26.553Z,30.13
2023-03-15T13:45:23.385Z,29.47
2023-03-15T13:47:51.002Z,29.16
2023-03-15T13:50:21.415Z,27.23
2023-03-15T13:52:49.272Z,26.08
2023-03-15T13:55:22.775Z,27.60
2023-03-15T13:57:57.397Z,28.98
2023-03-15T14:00:26.580Z,29.38
2023-03-15T14:03:04.403Z,30.97
2023-03-15T14:05:48.896Z,32.13
2023-03-15T14:08:31.885Z,34.54
2023-03-15T14:11:10.074Z,37.39
2023-03-15T14:14:00.384Z,37.13
2023-03-15T14:17:01.278Z,31.83
2023-03-15T14:19:32.311Z,30.58
2023-03-15T14:22:03.682Z,32.34
2023-03-15T14:24:43.415Z,33.33
2023-03-15T14:27:24.873Z,34.93
2023-03-15T14:29:56.623Z,36.75
2023-03-15T14:32:31.524Z,36.14
2023-03-15T14:35:26.466Z,32.83
2023-03-15T14:38:22.796Z,27.81
2023-03-15T14:40:51.944Z,27.78
2023-03-15T14:43:19.952Z,28.72
2023-03-15T14:45:48.769Z,28.83
2023-03-15T14:48:30.510Z,26.46
2023-03-15T14:50:57.913Z,26.40
2023-03-15T14:53:27.968Z,28.63
2023-03-15T14:55:55.129Z,30.98
2023-03-15T14:58:23.022Z,31.96
2023-03-15T15:00:53.874Z,32.08
2023-03-15T15:03:42.102Z,33.28
2023-03-15T15:06:13.871Z,34.86
2023-03-15T15:08:46.558Z,34.81
2023-03-15T15:11:15.101Z,34.86
2023-03-15T15:13:42.450Z,35.47
2023-03-15T15:16:09.665Z,35.56
2023-03-15T15:18:37.790Z,36.09
2023-03-15T15:21:33.515Z,36.24
2023-03-15T15:24:04.346Z,36.28
2023-03-15T15:26:32.628Z,37.38
2023-03-15T15:29:00.865Z,37.53
2023-03-15T15:31:30.101Z,37.63
2023-03-15T15:33:57.590Z,38.18
2023-03-15T15:36:32.526Z,37.89
2023-03-15T15:39:07.095Z,38.64
2023-03-15T15:41:34.775Z,38.31
2023-03-15T15:44:02.019Z,37.36
2023-03-15T15:46:29.229Z,37.20
2023-03-15T15:48:56.457Z,37.22
2023-03-15T15:51:38.579Z,36.80
2023-03-15T15:54:06.473Z,36.79
2023-03-15T15:56:40.159Z,36.92
2023-03-15T15:59:14.896Z,36.99
2023-03-15T16:01:59.078Z,36.64
2023-03-15T16:04:27.186Z,36.51
2023-03-15T16:07:03.539Z,37.35
2023-03-15T16:09:36.042Z,38.10
2023-03-15T16:12:11.888Z,38.76
2023-03-15T16:14:39.474Z,38.90
2023-03-15T16:17:17.660Z,39.29
2023-03-15T16:19:45.057Z,39.48
2023-03-15T16:22:12.204Z,39.94
2023-03-15T16:24:44.114Z,40.67
2023-03-15T16:27:16.633Z,40.97
2023-03-15T16:29:49.394Z,41.32
2023-03-15T16:32:26.909Z,41.63
2023-03-15T16:35:05.820Z,41.81
2023-03-15T16:37:33.324Z,41.62
2023-03-15T16:40:01.786Z,41.93
2023-03-15T16:42:29.030Z,41.92
2023-03-15T16:44:56.118Z,41.69
2023-03-15T16:47:23.216Z,41.69
2023-03-15T16:49:50.397Z,42.41
2023-03-15T16:52:17.857Z,42.20
2023-03-15T16:54:47.607Z,42.47
2023-03-15T16:57:23.336Z,42.25
2023-03-15T16:59:51.620Z,42.42
2023-03-15T17:02:31.287Z,43.03
2023-03-15T17:04:58.445Z,43.11
2023-03-15T17:07:33.397Z,43.29
2023-03-15T17:10:09.172Z,43.30
2023-03-15T17:12:37.181Z,43.47
2023-03-15T17:15:05.552Z,43.79
2023-03-15T17:17:34.023Z,44.00
2023-03-15T17:20:01.153Z,43.90
2023-03-15T17:22:28.581Z,43.88
2023-03-15T17:24:55.941Z,44.08
2023-03-15T17:27:33.537Z,43.68
2023-03-15T17:30:00.746Z,43.85
2023-03-15T17:32:29.071Z,43.84
2023-03-15T17:34:59.075Z,43.79
2023-03-15T17:37:30.508Z,43.95
2023-03-15T17:39:58.136Z,43.87
2023-03-15T17:42:25.381Z,43.72
2023-03-15T17:44:52.544Z,43.74
2023-03-15T17:47:19.708Z,44.69
2023-03-15T17:49:48.255Z,44.82
2023-03-15T17:52:17.268Z,45.24
2023-03-15T17:54:44.487Z,45.66
2023-03-15T17:57:14.675Z,46.07
2023-03-15T17:59:41.685Z,46.12
2023-03-15T18:02:16.240Z,46.77
2023-03-15T18:04:43.457Z,47.12
2023-03-15T18:07:11.555Z,47.46
2023-03-15T18:09:38.598Z,47.46
2023-03-15T18:12:08.705Z,47.54
2023-03-15T18:14:37.340Z,47.59
2023-03-15T18:17:05.306Z,47.50
2023-03-15T18:19:32.454Z,47.53
2023-03-15T18:21:59.496Z,48.18
2023-03-15T18:24:26.660Z,48.09
2023-03-15T18:26:53.806Z,48.38
2023-03-15T18:29:21.075Z,48.49
2023-03-15T18:31:48.423Z,48.40
2023-03-15T18:34:17.320Z,48.40
2023-03-15T18:36:44.440Z,48.67
2023-03-15T18:39:12.169Z,48.49
2023-03-15T18:41:39.681Z,48.38
2023-03-15T18:44:06.837Z,48.50
2023-03-15T18:46:34.109Z,48.78
2023-03-15T18:49:01.346Z,49.07
2023-03-15T18:51:28.442Z,49.61
2023-03-15T18:53:56.418Z,49.93
2023-03-15T18:56:34.250Z,49.94
2023-03-15T18:59:02.510Z,50.12
2023-03-15T19:01:29.980Z,50.29
2023-03-15T19:03:57.153Z,50.28
2023-03-15T19:06:24.453Z,50.41
2023-03-15T19:08:54.394Z,50.94
2023-03-15T19:11:24.550Z,50.76
2023-03-15T19:13:51.833Z,51.15
2023-03-15T19:16:21.046Z,51.51
2023-03-15T19:18:49.703Z,51.82
2023-03-15T19:21:18.921Z,51.82
2023-03-15T19:23:46.832Z,51.77
2023-03-15T19:26:14.136Z,51.92
2023-03-15T19:28:41.481Z,52.15
2023-03-15T19:31:09.371Z,52.22
2023-03-15T19:33:37.519Z,52.20
2023-03-15T19:36:05.535Z,52.38
2023-03-15T19:38:33.194Z,52.16
2023-03-15T19:41:10.196Z,52.64
2023-03-15T19:43:38.802Z,52.94
2023-03-15T19:46:08.087Z,53.09
2023-03-15T19:48:36.446Z,52.85
2023-03-15T19:51:04.546Z,52.85
2023-03-15T19:53:32.466Z,52.51
2023-03-15T19:56:04.807Z,51.87
2023-03-15T19:58:32.796Z,51.95
2023-03-15T20:01:00.068Z,52.05
2023-03-15T20:03:27.577Z,51.51
2023-03-15T20:05:54.721Z,51.33
2023-03-15T20:08:21.841Z,50.91
2023-03-15T20:10:49.020Z,51.31
2023-03-15T20:13:16.265Z,51.27
2023-03-15T20:15:43.464Z,51.12
2023-03-15T20:18:13.093Z,50.72
2023-03-15T20:20:40.234Z,50.41
2023-03-15T20:23:07.578Z,50.45
2023-03-15T20:25:35.869Z,50.21
2023-03-15T20:28:04.308Z,50.29
2023-03-15T20:30:31.421Z,50.16
2023-03-15T20:32:58.559Z,50.12
2023-03-15T20:35:25.824Z,50.32
2023-03-15T20:37:54.369Z,50.47
2023-03-15T20:40:22.210Z,50.94
2023-03-15T20:42:49.426Z,51.27
2023-03-15T20:45:16.614Z,51.46
2023-03-15T20:47:43.797Z,51.54
2023-03-15T20:50:13.176Z,51.40
2023-03-15T20:52:42.551Z,51.15
2023-03-15T20:55:12.275Z,51.25
2023-03-15T20:57:42.191Z,51.43
2023-03-15T21:00:13.103Z,51.40
2023-03-15T21:02:40.413Z,51.74
2023-03-15T21:05:13.014Z,51.57
2023-03-15T21:07:41.487Z,51.70
2023-03-15T21:10:13.746Z,51.64
2023-03-15T21:12:41.090Z,51.93
2023-03-15T21:15:08.613Z,51.76
2023-03-15T21:17:35.709Z,51.72
2023-03-15T21:20:05.690Z,51.57
2023-03-15T21:22:33.070Z,52.09
2023-03-15T21:25:01.444Z,52.30
2023-03-15T21:27:29.032Z,52.20
2023-03-15T21:29:56.147Z,52.40
2023-03-15T21:32:23.437Z,52.37
2023-03-15T21:34:50.859Z,52.49
2023-03-15T21:37:17.941Z,52.68
2023-03-15T21:39:45.066Z,52.50
2023-03-15T21:42:12.413Z,52.81
2023-03-15T21:44:39.601Z,52.86
2023-03-15T21:47:06.731Z,52.74
2023-03-15T21:49:33.843Z,52.33
2023-03-15T21:52:02.520Z,52.65
2023-03-15T21:54:29.824Z,52.81
2023-03-15T21:56:56.923Z,52.98
2023-03-15T21:59:28.132Z,53.00
2023-03-15T22:01:56.839Z,52.67
2023-03-15T22:04:25.448Z,52.45
2023-03-15T22:06:53.010Z,52.18
2023-03-15T22:09:21.459Z,52.21
2023-03-15T22:11:49.864Z,52.42
2023-03-15T22:14:17.004Z,52.34
2023-03-15T22:16:44.425Z,52.28
2023-03-15T22:19:11.695Z,52.57
2023-03-15T22:21:38.778Z,52.53
2023-03-15T22:24:06.393Z,53.00
2023-03-15T22:26:34.252Z,53.74
2023-03-15T22:29:01.308Z,53.62
2023-03-15T22:31:31.842Z,53.51
2023-03-15T22:33:59.110Z,54.08
2023-03-15T22:36:26.228Z,53.92
2023-03-15T22:38:53.217Z,53.94
2023-03-15T22:41:20.440Z,54.24
2023-03-15T22:43:47.446Z,54.36
2023-03-15T22:46:14.543Z,54.46
2023-03-15T22:48:41.579Z,54.48
2023-03-15T22:51:10.981Z,54.66
2023-03-15T22:53:38.026Z,54.91
2023-03-15T22:56:05.909Z,55.04
2023-03-15T22:58:33.148Z,54.98
2023-03-15T23:01:00.521Z,54.90
2023-03-15T23:03:27.926Z,54.66
2023-03-15T23:05:56.012Z,54.45
2023-03-15T23:08:26.383Z,54.62
2023-03-15T23:10:56.070Z,54.64
2023-03-15T23:13:23.120Z,54.24
2023-03-15T23:15:50.348Z,54.88
2023-03-15T23:18:17.450Z,55.14
2023-03-15T23:20:44.560Z,55.22
2023-03-15T23:23:11.649Z,55.29
2023-03-15T23:25:39.835Z,55.20
2023-03-15T23:28:07.639Z,55.02
2023-03-15T23:30:36.229Z,55.26
2023-03-15T23:33:04.044Z,55.39
2023-03-15T23:35:31.891Z,55.40
2023-03-15T23:37:59.082Z,55.15
2023-03-15T23:40:27.070Z,55.36
2023-03-15T23:42:59.108Z,55.97
2023-03-15T23:45:29.848Z,56.21
2023-03-15T23:47:57.453Z,56.31
2023-03-15T23:50:26.094Z,56.19
2023-03-15T23:52:55.398Z,56.44
2023-03-15T23:55:23.766Z,56.24
2023-03-15T23:57:51.017Z,56.09
